createdAt,value
2022-09-25T00:00:30.858Z,98037.78
2022-09-25T00:02:35.838Z,98035.56
2022-09-25T00:04:40.788Z,98034.91
2022-09-25T00:06:48.617Z,98033.34
2022-09-25T00:08:53.775Z,98040.69
2022-09-25T00:10:58.322Z,98045.44
2022-09-25T00:13:03.309Z,98044.72
2022-09-25T00:15:09.107Z,98042.00
2022-09-25T00:17:16.568Z,98040.13
2022-09-25T00:19:36.978Z,98040.13
2022-09-25T00:21:41.758Z,98048.00
2022-09-25T00:23:47.993Z,98048.63
2022-09-25T00:25:56.287Z,98046.63
2022-09-25T00:28:01.184Z,98034.09
2022-09-25T00:30:06.667Z,98032.09
2022-09-25T00:32:13.088Z,98025.06
2022-09-25T00:34:20.414Z,98022.34
2022-09-25T00:36:25.275Z,98025.81
2022-09-25T00:38:30.039Z,98021.41
2022-09-25T00:40:34.810Z,98016.16
2022-09-25T00:42:40.228Z,98017.94
2022-09-25T00:45:01.219Z,98006.31
2022-09-25T00:47:06.101Z,98015.25
2022-09-25T00:49:16.898Z,98011.22
2022-09-25T00:51:29.801Z,98017.72
2022-09-25T00:53:37.959Z,98010.88
2022-09-25T00:55:46.757Z,98009.28
2022-09-25T00:57:56.061Z,98010.13
2022-09-25T01:00:07.678Z,98007.63
2022-09-25T01:02:15.236Z,98004.88
2022-09-25T01:04:22.738Z,98001.44
2022-09-25T01:06:30.796Z,98001.34
2022-09-25T01:08:37.124Z,98001.34
2022-09-25T01:10:42.238Z,97997.78
2022-09-25T01:12:50.851Z,97989.78
2022-09-25T01:14:55.783Z,97997.78
2022-09-25T01:17:08.919Z,97993.47
2022-09-25T01:19:29.115Z,97988.41
2022-09-25T01:21:42.462Z,97989.28
2022-09-25T01:24:20.136Z,97986.53
2022-09-25T01:26:49.625Z,97987.97
2022-09-25T01:29:09.356Z,97983.56
2022-09-25T01:31:20.910Z,97990.59
2022-09-25T01:33:33.818Z,97988.81
2022-09-25T01:35:48.361Z,97991.22
2022-09-25T01:38:00.187Z,97980.53
2022-09-25T01:40:11.631Z,97978.66
2022-09-25T01:42:22.361Z,97974.25
2022-09-25T01:44:33.900Z,97973.34
2022-09-25T01:46:43.524Z,97975.13
2022-09-25T01:48:54.767Z,97968.19
2022-09-25T01:51:03.554Z,97972.59
2022-09-25T01:53:15.238Z,97970.91
2022-09-25T01:55:26.439Z,97971.84
2022-09-25T01:57:38.553Z,97968.69
2022-09-25T01:59:54.044Z,97969.75
2022-09-25T02:02:01.912Z,97962.44
2022-09-25T02:04:11.673Z,97967.34
2022-09-25T02:06:20.924Z,97967.00
2022-09-25T02:08:30.969Z,97963.81
2022-09-25T02:10:39.937Z,97972.63
2022-09-25T02:12:48.201Z,97976.19
2022-09-25T02:15:01.045Z,97973.47
2022-09-25T02:17:12.571Z,97971.59
2022-09-25T02:19:32.297Z,97973.28
2022-09-25T02:21:45.477Z,97973.00
2022-09-25T02:23:56.400Z,97967.84
2022-09-25T02:26:07.849Z,97964.28
2022-09-25T02:28:12.798Z,97970.56
2022-09-25T02:30:20.371Z,97968.03
2022-09-25T02:32:29.430Z,97967.00
2022-09-25T02:34:35.401Z,97967.09
2022-09-25T02:36:40.275Z,97967.97
2022-09-25T02:38:45.029Z,97967.19
2022-09-25T02:40:55.535Z,97969.00
2022-09-25T02:43:10.252Z,97968.13
2022-09-25T02:45:41.293Z,97967.09
2022-09-25T02:47:58.840Z,97970.75
2022-09-25T02:50:10.621Z,97972.44
2022-09-25T02:52:20.486Z,97971.50
2022-09-25T02:54:31.747Z,97972.25
2022-09-25T02:56:43.301Z,97971.09
2022-09-25T02:58:52.376Z,97969.31
2022-09-25T03:01:02.749Z,97968.47
2022-09-25T03:03:10.971Z,97971.09
2022-09-25T03:05:17.050Z,97968.28
2022-09-25T03:07:25.648Z,97959.50
2022-09-25T03:09:30.251Z,97964.75
2022-09-25T03:11:35.203Z,97968.19
2022-09-25T03:13:40.212Z,97960.41
2022-09-25T03:15:47.728Z,97957.72
2022-09-25T03:17:55.194Z,97953.31
2022-09-25T03:19:59.942Z,97952.03
2022-09-25T03:22:05.650Z,97958.59
2022-09-25T03:24:10.699Z,97959.63
2022-09-25T03:26:15.449Z,97964.22
2022-09-25T03:28:20.316Z,97967.69
2022-09-25T03:30:25.067Z,97964.41
2022-09-25T03:32:29.860Z,97966.19
2022-09-25T03:34:37.280Z,97967.78
2022-09-25T03:36:42.375Z,97965.88
2022-09-25T03:38:47.199Z,97964.22
2022-09-25T03:40:52.000Z,97966.75
2022-09-25T03:42:56.949Z,97961.22
2022-09-25T03:45:03.997Z,97962.88
2022-09-25T03:47:08.740Z,97959.34
2022-09-25T03:49:13.998Z,97957.56
2022-09-25T03:51:21.686Z,97956.09
2022-09-25T03:53:28.104Z,97949.06
2022-09-25T03:55:33.077Z,97948.50
2022-09-25T03:57:38.117Z,97951.97
2022-09-25T03:59:42.865Z,97947.88
2022-09-25T04:01:47.821Z,97950.38
2022-09-25T04:03:53.202Z,97942.81
2022-09-25T04:05:59.007Z,97948.25
2022-09-25T04:08:06.902Z,97946.47
2022-09-25T04:10:12.308Z,97950.00
2022-09-25T04:12:17.979Z,97947.31
2022-09-25T04:14:23.401Z,97946.28
2022-09-25T04:16:29.527Z,97945.97
2022-09-25T04:18:34.671Z,97947.94
2022-09-25T04:20:40.085Z,97941.97
2022-09-25T04:22:44.967Z,97946.28
2022-09-25T04:24:52.647Z,97943.47
2022-09-25T04:26:57.461Z,97944.22
2022-09-25T04:29:03.478Z,97937.00
2022-09-25T04:31:08.636Z,97935.00
2022-09-25T04:33:25.673Z,97931.94
2022-09-25T04:35:30.509Z,97941.03
2022-09-25T04:37:35.827Z,97943.09
2022-09-25T04:39:40.305Z,97940.66
2022-09-25T04:41:47.935Z,97942.50
2022-09-25T04:43:52.636Z,97942.50
2022-09-25T04:45:57.420Z,97935.56
2022-09-25T04:48:03.625Z,97947.50
2022-09-25T04:50:09.744Z,97938.81
2022-09-25T04:52:15.160Z,97939.53
2022-09-25T04:54:19.953Z,97943.09
2022-09-25T04:56:26.954Z,97943.41
2022-09-25T04:58:34.531Z,97947.94
2022-09-25T05:00:41.016Z,97950.66
2022-09-25T05:02:45.924Z,97955.91
2022-09-25T05:04:51.078Z,97951.50
2022-09-25T05:06:55.872Z,97945.31
2022-09-25T05:09:00.601Z,97947.22
2022-09-25T05:11:05.409Z,97944.50
2022-09-25T05:13:12.000Z,97945.31
2022-09-25T05:15:21.877Z,97944.25
2022-09-25T05:17:26.564Z,97949.84
2022-09-25T05:19:31.756Z,97950.13
2022-09-25T05:21:36.539Z,97945.91
2022-09-25T05:23:41.320Z,97943.22
2022-09-25T05:25:47.165Z,97936.38
2022-09-25T05:27:51.974Z,97930.19
2022-09-25T05:29:57.055Z,97930.94
2022-09-25T05:32:04.935Z,97931.50
2022-09-25T05:34:09.801Z,97926.47
2022-09-25T05:36:15.655Z,97932.34
2022-09-25T05:38:20.392Z,97931.41
2022-09-25T05:40:25.605Z,97932.03
2022-09-25T05:42:32.690Z,97927.81
2022-09-25T05:44:39.720Z,97930.31
2022-09-25T05:46:44.721Z,97930.34
2022-09-25T05:48:54.211Z,97931.50
2022-09-25T05:51:00.206Z,97930.00
2022-09-25T05:53:07.465Z,97928.13
2022-09-25T05:55:13.261Z,97930.63
2022-09-25T05:57:18.067Z,97936.75
2022-09-25T05:59:24.299Z,97939.44
2022-09-25T06:01:29.425Z,97936.94
2022-09-25T06:03:34.237Z,97942.91
2022-09-25T06:05:41.947Z,97943.94
2022-09-25T06:07:46.821Z,97938.41
2022-09-25T06:09:51.646Z,97938.41
2022-09-25T06:11:56.715Z,97941.78
2022-09-25T06:14:03.178Z,97935.16
2022-09-25T06:16:15.394Z,97934.41
2022-09-25T06:18:20.360Z,97937.03
2022-09-25T06:20:25.205Z,97941.22
2022-09-25T06:22:32.676Z,97932.97
2022-09-25T06:24:37.410Z,97932.63
2022-09-25T06:26:42.305Z,97930.63
2022-09-25T06:28:47.068Z,97925.88
2022-09-25T06:30:51.893Z,97929.72
2022-09-25T06:33:00.073Z,97936.75
2022-09-25T06:35:05.122Z,97927.94
2022-09-25T06:37:09.907Z,97930.56
2022-09-25T06:39:17.392Z,97941.78
2022-09-25T06:41:22.431Z,97934.56
2022-09-25T06:43:28.005Z,97935.97
2022-09-25T06:45:33.823Z,97930.91
2022-09-25T06:47:38.569Z,97936.16
2022-09-25T06:49:43.309Z,97940.84
2022-09-25T06:51:48.188Z,97942.44
2022-09-25T06:53:56.000Z,97945.88
2022-09-25T06:56:04.541Z,97944.41
2022-09-25T06:58:11.242Z,97940.09
2022-09-25T07:00:16.944Z,97943.66
2022-09-25T07:02:34.176Z,97947.03
2022-09-25T07:04:39.044Z,97947.75
2022-09-25T07:06:48.296Z,97947.56
2022-09-25T07:08:54.203Z,97951.88
2022-09-25T07:11:01.613Z,97948.75
2022-09-25T07:13:09.064Z,97943.22
2022-09-25T07:15:14.558Z,97943.56
2022-09-25T07:17:20.485Z,97943.25
2022-09-25T07:19:27.803Z,97948.09
2022-09-25T07:21:33.218Z,97945.41
2022-09-25T07:23:38.464Z,97943.81
2022-09-25T07:25:43.544Z,97949.81
2022-09-25T07:27:48.306Z,97947.19
2022-09-25T07:29:55.734Z,97943.41
2022-09-25T07:32:00.519Z,97939.53
2022-09-25T07:34:11.512Z,97933.06
2022-09-25T07:36:17.891Z,97936.84
2022-09-25T07:38:28.580Z,97933.72
2022-09-25T07:40:35.590Z,97932.50
2022-09-25T07:42:40.501Z,97929.34
2022-09-25T07:44:48.372Z,97932.41
2022-09-25T07:46:56.254Z,97919.69
2022-09-25T07:49:01.072Z,97917.63
2022-09-25T07:51:07.938Z,97918.28
2022-09-25T07:53:12.711Z,97915.75
2022-09-25T07:55:20.197Z,97908.16
2022-09-25T07:57:24.979Z,97909.13
2022-09-25T07:59:29.931Z,97904.38
2022-09-25T08:01:37.225Z,97911.09
2022-09-25T08:03:47.248Z,97907.22
2022-09-25T08:05:59.721Z,97911.28
2022-09-25T08:08:05.057Z,97915.16
2022-09-25T08:10:11.600Z,97919.56
2022-09-25T08:12:16.424Z,97904.44
2022-09-25T08:14:26.625Z,97904.44
2022-09-25T08:16:31.911Z,97901.09
2022-09-25T08:18:36.674Z,97903.16
2022-09-25T08:20:44.065Z,97901.88
2022-09-25T08:22:48.904Z,97903.56
2022-09-25T08:24:55.553Z,97899.16
2022-09-25T08:27:00.386Z,97895.47
2022-09-25T08:29:05.868Z,97902.91
2022-09-25T08:31:11.015Z,97900.88
2022-09-25T08:33:16.218Z,97898.16
2022-09-25T08:35:21.987Z,97898.38
2022-09-25T08:37:29.404Z,97899.31
2022-09-25T08:39:34.334Z,97895.25
2022-09-25T08:41:49.586Z,97901.47
2022-09-25T08:44:05.898Z,97896.31
2022-09-25T08:46:34.494Z,97890.94
2022-09-25T08:48:57.134Z,97889.16
2022-09-25T08:51:05.496Z,97902.53
2022-09-25T08:53:17.971Z,97895.25
2022-09-25T08:55:49.480Z,97898.50
2022-09-25T08:57:55.688Z,97890.72
2022-09-25T09:00:04.952Z,97893.34
2022-09-25T09:02:17.305Z,97888.81
2022-09-25T09:04:27.986Z,97893.13
2022-09-25T09:06:34.477Z,97890.38
2022-09-25T09:08:43.937Z,97885.63
2022-09-25T09:10:53.821Z,97887.91
2022-09-25T09:13:04.039Z,97887.50
2022-09-25T09:15:20.894Z,97881.28
2022-09-25T09:17:28.350Z,97881.88
2022-09-25T09:19:33.487Z,97875.50
2022-09-25T09:21:40.455Z,97867.75
2022-09-25T09:23:58.222Z,97870.78
2022-09-25T09:26:05.209Z,97867.59
2022-09-25T09:28:29.610Z,97863.66
2022-09-25T09:30:40.669Z,97862.00
2022-09-25T09:33:15.470Z,97858.81
2022-09-25T09:35:33.800Z,97845.44
2022-09-25T09:38:00.356Z,97850.94
2022-09-25T09:40:13.804Z,97840.41
2022-09-25T09:42:26.829Z,97839.03
2022-09-25T09:44:51.385Z,97831.88
2022-09-25T09:47:07.633Z,97824.31
2022-09-25T09:49:19.054Z,97821.69
2022-09-25T09:51:28.251Z,97823.22
2022-09-25T09:53:42.102Z,97817.25
2022-09-25T09:55:53.579Z,97815.69
2022-09-25T09:58:08.624Z,97810.06
2022-09-25T10:00:19.991Z,97811.63
2022-09-25T10:02:34.617Z,97813.06
2022-09-25T10:04:42.644Z,97811.00
2022-09-25T10:06:51.227Z,97805.00
2022-09-25T10:08:56.036Z,97796.41
2022-09-25T10:11:07.030Z,97794.50
2022-09-25T10:13:18.925Z,97786.13
2022-09-25T10:15:32.740Z,97780.13
2022-09-25T10:17:38.908Z,97777.47
2022-09-25T10:19:50.886Z,97776.25
2022-09-25T10:22:01.529Z,97767.59
2022-09-25T10:24:07.272Z,97770.19
2022-09-25T10:26:29.985Z,97765.72
2022-09-25T10:28:37.060Z,97770.69
2022-09-25T10:30:49.180Z,97768.84
2022-09-25T10:33:07.213Z,97757.53
2022-09-25T10:35:17.938Z,97750.34
2022-09-25T10:37:26.353Z,97753.09
2022-09-25T10:39:48.966Z,97741.75
2022-09-25T10:41:58.560Z,97739.88
2022-09-25T10:44:04.484Z,97742.91
2022-09-25T10:46:37.317Z,97741.50
2022-09-25T10:49:04.663Z,97742.88
2022-09-25T10:51:12.264Z,97746.13
2022-09-25T10:53:31.066Z,97743.34
2022-09-25T10:55:39.705Z,97741.59
2022-09-25T10:57:50.328Z,97746.31
2022-09-25T10:59:55.730Z,97751.31
2022-09-25T11:02:00.649Z,97749.63
2022-09-25T11:04:09.379Z,97741.78
2022-09-25T11:06:25.766Z,97732.25
2022-09-25T11:08:32.964Z,97738.56
2022-09-25T11:10:39.842Z,97729.13
2022-09-25T11:12:48.158Z,97730.59
2022-09-25T11:14:58.671Z,97729.16
2022-09-25T11:17:06.099Z,97728.59
2022-09-25T11:19:15.534Z,97720.81
2022-09-25T11:21:29.664Z,97720.91
2022-09-25T11:23:39.964Z,97720.75
2022-09-25T11:25:49.294Z,97723.59
2022-09-25T11:28:04.317Z,97729.38
2022-09-25T11:30:14.378Z,98077.59
2022-09-25T11:32:27.267Z,98076.06
2022-09-25T11:34:51.023Z,98058.16
2022-09-25T11:37:04.178Z,98057.75
2022-09-25T11:39:30.167Z,98038.22
2022-09-25T11:41:37.148Z,98017.06
2022-09-25T11:43:58.390Z,98165.75
2022-09-25T11:46:13.884Z,98255.16
2022-09-25T11:48:26.828Z,98326.50
2022-09-25T11:50:49.543Z,98337.56
2022-09-25T11:53:04.237Z,98303.00
2022-09-25T11:55:48.591Z,98352.94
2022-09-25T11:58:03.731Z,98383.91
2022-09-25T12:00:20.630Z,98390.03
2022-09-25T12:02:41.047Z,98441.66
2022-09-25T12:05:01.251Z,98431.72
2022-09-25T12:07:34.572Z,98469.56
2022-09-25T12:09:54.193Z,98457.56
2022-09-25T12:12:05.046Z,98464.47
2022-09-25T12:14:17.675Z,98458.47
2022-09-25T12:16:30.454Z,98515.19
2022-09-25T12:18:56.687Z,98512.69
2022-09-25T12:21:04.355Z,98437.78
2022-09-25T12:23:19.590Z,98332.00
2022-09-25T12:25:36.993Z,98350.91
2022-09-25T12:27:50.930Z,98324.31
2022-09-25T12:30:12.026Z,98358.66
2022-09-25T12:32:28.207Z,98454.25
2022-09-25T12:34:50.935Z,98501.50
2022-09-25T12:37:06.430Z,98467.28
2022-09-25T12:39:29.708Z,98460.25
2022-09-25T12:41:48.970Z,98426.78
2022-09-25T12:44:00.784Z,98411.38
2022-09-25T12:46:13.622Z,98382.06
2022-09-25T12:48:27.318Z,98414.00
2022-09-25T12:50:37.390Z,98434.63
2022-09-25T12:52:47.052Z,98500.06
2022-09-25T12:54:58.064Z,98447.31
2022-09-25T12:57:06.976Z,98447.31
2022-09-25T12:59:18.117Z,98400.16
2022-09-25T13:01:31.320Z,98467.28
2022-09-25T13:03:46.720Z,98441.66
2022-09-25T13:05:56.344Z,98444.09
2022-09-25T13:08:10.437Z,98400.34
2022-09-25T13:10:31.871Z,98287.56
2022-09-25T13:12:39.628Z,98183.50
2022-09-25T13:14:49.065Z,98137.19
2022-09-25T13:16:56.702Z,98128.56
2022-09-25T13:19:29.668Z,98150.00
2022-09-25T13:21:38.598Z,98127.81
2022-09-25T13:23:44.380Z,98140.81
2022-09-25T13:26:00.600Z,98152.88
2022-09-25T13:28:10.028Z,98219.97
2022-09-25T13:30:25.312Z,98298.28
2022-09-25T13:32:34.944Z,98362.06
2022-09-25T13:34:44.845Z,98392.97
2022-09-25T13:36:51.954Z,98388.66
2022-09-25T13:39:12.727Z,98434.28
2022-09-25T13:41:18.008Z,98480.78
2022-09-25T13:43:25.446Z,98510.97
2022-09-25T13:45:35.197Z,98479.19
2022-09-25T13:48:01.881Z,98450.78
2022-09-25T13:50:27.286Z,98477.50
2022-09-25T13:52:32.820Z,98455.06
2022-09-25T13:54:37.650Z,98477.50
2022-09-25T13:56:55.423Z,98504.97
2022-09-25T13:59:26.518Z,98533.22
2022-09-25T14:01:38.786Z,97995.38
2022-09-25T14:03:46.873Z,97979.94
2022-09-25T14:05:54.339Z,97976.28
2022-09-25T14:08:03.393Z,97977.97
2022-09-25T14:10:12.982Z,97979.56
2022-09-25T14:12:46.460Z,97975.16
2022-09-25T14:14:57.916Z,97980.53
2022-09-25T14:17:03.392Z,97978.97
2022-09-25T14:19:09.151Z,97977.31
2022-09-25T14:21:19.651Z,97973.91
2022-09-25T14:23:29.194Z,97974.50
2022-09-25T14:25:42.632Z,97972.00
2022-09-25T14:27:54.055Z,97969.19
2022-09-25T14:30:17.065Z,97970.84
2022-09-25T14:32:56.205Z,97973.47
2022-09-25T14:35:16.339Z,97967.50
2022-09-25T14:37:44.781Z,97966.75
2022-09-25T14:40:05.192Z,97961.13
2022-09-25T14:42:46.543Z,97963.94
2022-09-25T14:45:06.474Z,97954.78
2022-09-25T14:47:13.325Z,97956.16
2022-09-25T14:49:26.836Z,97951.75
2022-09-25T14:51:40.480Z,97952.41
2022-09-25T14:53:53.311Z,97951.09
2022-09-25T14:56:01.818Z,97958.53
2022-09-25T14:58:12.254Z,97952.66
2022-09-25T15:00:24.207Z,97957.94
2022-09-25T15:02:34.103Z,97952.97
2022-09-25T15:04:39.350Z,97951.53
2022-09-25T15:06:44.702Z,97959.88
2022-09-25T15:08:52.835Z,97958.97
2022-09-25T15:11:05.361Z,97961.53
2022-09-25T15:13:16.099Z,97964.91
2022-09-25T15:15:21.957Z,97957.13
2022-09-25T15:17:25.030Z,97955.88
2022-09-25T15:19:34.499Z,97953.84
2022-09-25T15:21:39.567Z,97955.25
2022-09-25T15:23:45.315Z,97949.25
2022-09-25T15:25:55.635Z,97945.03
2022-09-25T15:28:01.572Z,97947.88
2022-09-25T15:30:07.221Z,97946.88
2022-09-25T15:32:20.080Z,97942.41
2022-09-25T15:34:27.467Z,97940.00
2022-09-25T15:36:32.393Z,97940.19
2022-09-25T15:38:38.766Z,97939.56
2022-09-25T15:40:44.236Z,97950.53
2022-09-25T15:42:52.682Z,97939.13
2022-09-25T15:45:00.904Z,97941.00
2022-09-25T15:47:05.753Z,97941.47
2022-09-25T15:49:10.808Z,97933.81
2022-09-25T15:51:20.466Z,97935.31
2022-09-25T15:53:29.082Z,97924.31
2022-09-25T15:55:34.549Z,97926.94
2022-09-25T15:57:39.481Z,97924.69
2022-09-25T16:00:01.639Z,97933.81
2022-09-25T16:02:33.791Z,97930.63
2022-09-25T16:04:50.914Z,97922.84
2022-09-25T16:06:56.028Z,97926.22
2022-09-25T16:09:11.012Z,97926.44
2022-09-25T16:11:21.861Z,97921.59
2022-09-25T16:13:28.298Z,97930.41
2022-09-25T16:15:49.842Z,97939.75
2022-09-25T16:17:55.908Z,97939.00
2022-09-25T16:20:29.287Z,97935.47
2022-09-25T16:22:42.433Z,97934.16
2022-09-25T16:24:53.973Z,97932.69
2022-09-25T16:27:01.355Z,97934.00
2022-09-25T16:29:21.155Z,97932.78
2022-09-25T16:31:28.776Z,97923.56
2022-09-25T16:33:37.786Z,97931.56
2022-09-25T16:36:10.151Z,97926.03
2022-09-25T16:38:29.620Z,97927.50
2022-09-25T16:40:38.547Z,97934.44
2022-09-25T16:42:43.504Z,97933.19
2022-09-25T16:44:48.883Z,97935.16
2022-09-25T16:47:17.212Z,97940.00
2022-09-25T16:49:22.682Z,97942.16
2022-09-25T16:51:29.057Z,97944.69
2022-09-25T16:53:35.199Z,97949.16
2022-09-25T16:55:48.975Z,97949.09
2022-09-25T16:57:54.526Z,97944.59
2022-09-25T16:59:59.250Z,97950.69
2022-09-25T17:02:13.566Z,97945.91
2022-09-25T17:04:23.902Z,97936.56
2022-09-25T17:06:31.357Z,97941.63
2022-09-25T17:08:36.121Z,97942.25
2022-09-25T17:10:43.528Z,97942.81
2022-09-25T17:12:53.745Z,97949.16
2022-09-25T17:14:59.435Z,97949.56
2022-09-25T17:17:04.213Z,97962.94
2022-09-25T17:19:16.998Z,97957.91
2022-09-25T17:21:24.588Z,97958.63
2022-09-25T17:23:29.818Z,97955.28
2022-09-25T17:25:41.753Z,97953.59
2022-09-25T17:27:46.780Z,97956.19
2022-09-25T17:29:51.715Z,97958.53
2022-09-25T17:31:56.582Z,97955.72
2022-09-25T17:34:04.056Z,97962.38
2022-09-25T17:36:12.830Z,97965.00
2022-09-25T17:38:20.302Z,97957.22
2022-09-25T17:40:25.241Z,97965.50
2022-09-25T17:42:31.039Z,97966.47
2022-09-25T17:44:36.278Z,97964.88
2022-09-25T17:46:40.975Z,97967.00
2022-09-25T17:48:50.153Z,97963.91
2022-09-25T17:50:59.520Z,97967.19
2022-09-25T17:53:05.928Z,97961.28
2022-09-25T17:55:18.784Z,97970.81
2022-09-25T17:57:23.632Z,97968.72
2022-09-25T17:59:28.482Z,97969.41
2022-09-25T18:01:39.540Z,97971.25
2022-09-25T18:03:44.629Z,97966.84
2022-09-25T18:05:49.916Z,97976.19
2022-09-25T18:07:54.487Z,97977.41
2022-09-25T18:09:59.382Z,97988.25
2022-09-25T18:12:07.049Z,97986.47
2022-09-25T18:14:12.837Z,97983.09
2022-09-25T18:16:20.526Z,97983.56
2022-09-25T18:18:46.077Z,97986.63
2022-09-25T18:21:07.064Z,97985.84
2022-09-25T18:23:14.075Z,97994.38
2022-09-25T18:25:18.937Z,97997.75
2022-09-25T18:27:27.749Z,97993.75
2022-09-25T18:29:32.903Z,98004.13
2022-09-25T18:31:37.585Z,98010.47
2022-09-25T18:33:47.153Z,98006.28
2022-09-25T18:35:52.291Z,98009.97
2022-09-25T18:38:00.730Z,98006.03
2022-09-25T18:40:06.307Z,98013.28
2022-09-25T18:42:11.138Z,98005.34
2022-09-25T18:44:19.645Z,98008.63
2022-09-25T18:46:24.523Z,98002.75
2022-09-25T18:48:29.538Z,98001.59
2022-09-25T18:50:35.243Z,98004.53
2022-09-25T18:52:40.382Z,98003.75
2022-09-25T18:54:45.334Z,98005.78
2022-09-25T18:56:50.237Z,98010.50
2022-09-25T18:58:54.988Z,98013.53
2022-09-25T19:01:02.473Z,98022.03
2022-09-25T19:03:07.499Z,98018.94
2022-09-25T19:05:12.524Z,98027.28
2022-09-25T19:07:17.551Z,98028.53
2022-09-25T19:09:24.787Z,98039.81
2022-09-25T19:11:30.806Z,98033.75
2022-09-25T19:13:35.888Z,98028.38
2022-09-25T19:15:40.689Z,98036.81
2022-09-25T19:17:48.441Z,98034.50
2022-09-25T19:19:53.301Z,98033.84
2022-09-25T19:21:58.365Z,98035.72
2022-09-25T19:24:03.288Z,98043.69
2022-09-25T19:26:08.757Z,98056.91
2022-09-25T19:28:16.386Z,98066.84
2022-09-25T19:30:21.213Z,98077.91
2022-09-25T19:32:27.543Z,98096.34
2022-09-25T19:34:35.279Z,98113.00
2022-09-25T19:36:40.128Z,98126.34
2022-09-25T19:38:45.838Z,98135.97
2022-09-25T19:40:50.740Z,98135.41
2022-09-25T19:42:55.657Z,98138.56
2022-09-25T19:45:01.723Z,98133.69
2022-09-25T19:47:06.655Z,98120.91
2022-09-25T19:49:11.723Z,98110.63
2022-09-25T19:51:21.239Z,98100.94
2022-09-25T19:53:25.972Z,98100.34
2022-09-25T19:55:31.407Z,98085.50
2022-09-25T19:57:36.841Z,98079.88
2022-09-25T19:59:41.628Z,98061.56
2022-09-25T20:01:47.062Z,98049.28
2022-09-25T20:03:52.442Z,98034.00
2022-09-25T20:05:57.228Z,98013.97
2022-09-25T20:08:05.022Z,97998.53
2022-09-25T20:10:10.063Z,97994.41
2022-09-25T20:12:14.685Z,97983.38
2022-09-25T20:14:25.266Z,97981.25
2022-09-25T20:16:31.975Z,97968.38
2022-09-25T20:18:36.950Z,97966.50
2022-09-25T20:20:41.730Z,97941.69
2022-09-25T20:22:46.872Z,97951.03
2022-09-25T20:24:54.252Z,97955.72
2022-09-25T20:26:58.954Z,97953.88
2022-09-25T20:29:06.258Z,97926.50
2022-09-25T20:31:14.041Z,97909.56
2022-09-25T20:33:18.901Z,97929.19
2022-09-25T20:35:24.056Z,97923.72
2022-09-25T20:37:28.864Z,97917.13
2022-09-25T20:39:33.592Z,97917.06
2022-09-25T20:41:41.410Z,97913.19
2022-09-25T20:43:47.104Z,97913.84
2022-09-25T20:45:59.032Z,97922.03
2022-09-25T20:48:04.136Z,97907.63
2022-09-25T20:50:09.465Z,97896.59
2022-09-25T20:52:14.603Z,97904.44
2022-09-25T20:54:19.376Z,97913.03
2022-09-25T20:56:24.687Z,97902.66
2022-09-25T20:58:32.464Z,97901.25
2022-09-25T21:00:37.883Z,97893.06
2022-09-25T21:02:42.770Z,97900.84
2022-09-25T21:04:47.538Z,97902.44
2022-09-25T21:06:52.352Z,97911.78
2022-09-25T21:09:00.394Z,97898.81
2022-09-25T21:11:07.940Z,97903.00
2022-09-25T21:13:12.949Z,97894.44
2022-09-25T21:15:20.483Z,97894.50
2022-09-25T21:17:25.819Z,97896.94
2022-09-25T21:19:31.887Z,97907.88
2022-09-25T21:21:36.709Z,97889.94
2022-09-25T21:23:42.041Z,97895.84
2022-09-25T21:25:46.898Z,97885.06
2022-09-25T21:27:51.775Z,97893.59
2022-09-25T21:29:56.496Z,97881.91
2022-09-25T21:32:04.757Z,97894.50
2022-09-25T21:34:13.359Z,97897.88
2022-09-25T21:36:19.965Z,97888.84
2022-09-25T21:38:24.737Z,97875.03
2022-09-25T21:40:29.603Z,97885.97
2022-09-25T21:42:34.433Z,97880.56
2022-09-25T21:44:39.248Z,97875.69
2022-09-25T21:46:44.391Z,97872.00
2022-09-25T21:48:54.477Z,97876.38
2022-09-25T21:51:01.093Z,97869.03
2022-09-25T21:53:06.248Z,97876.81
2022-09-25T21:55:11.690Z,97877.22
2022-09-25T21:57:16.529Z,97879.09
2022-09-25T21:59:21.729Z,97868.84
2022-09-25T22:01:27.492Z,97870.94
2022-09-25T22:03:33.529Z,97868.31
2022-09-25T22:05:42.031Z,97875.31
2022-09-25T22:07:47.104Z,97865.03
2022-09-25T22:09:52.126Z,97875.97
2022-09-25T22:11:57.468Z,97865.63
2022-09-25T22:14:03.104Z,97866.22
2022-09-25T22:16:10.219Z,97868.91
2022-09-25T22:18:14.982Z,97863.28
2022-09-25T22:20:19.929Z,97881.03
2022-09-25T22:22:29.728Z,97872.19
2022-09-25T22:24:34.661Z,97877.22
2022-09-25T22:26:41.597Z,97874.56
2022-09-25T22:28:46.659Z,97880.25
2022-09-25T22:30:51.510Z,97865.78
2022-09-25T22:32:56.304Z,97859.66
2022-09-25T22:35:01.001Z,97863.34
2022-09-25T22:37:05.776Z,97865.94
2022-09-25T22:39:15.927Z,97869.41
2022-09-25T22:41:20.715Z,97880.34
2022-09-25T22:43:25.544Z,97851.97
2022-09-25T22:45:30.552Z,97853.47
2022-09-25T22:47:35.303Z,97862.16
2022-09-25T22:49:40.030Z,97852.38
2022-09-25T22:51:44.815Z,97838.47
2022-09-25T22:53:50.333Z,97846.31
2022-09-25T22:55:57.762Z,97841.75
2022-09-25T22:58:02.504Z,97831.75
2022-09-25T23:00:08.659Z,97830.81
2022-09-25T23:02:13.445Z,97827.53
2022-09-25T23:04:21.291Z,97837.06
2022-09-25T23:06:26.452Z,97834.44
2022-09-25T23:08:31.277Z,97813.94
2022-09-25T23:11:02.521Z,97816.22
2022-09-25T23:13:05.844Z,97825.75
2022-09-25T23:15:12.236Z,97823.22
2022-09-25T23:17:17.044Z,97816.97
2022-09-25T23:19:22.955Z,97816.81
2022-09-25T23:21:28.623Z,97815.78
2022-09-25T23:23:33.931Z,97810.94
2022-09-25T23:25:38.724Z,97810.75
2022-09-25T23:27:43.438Z,97815.69
2022-09-25T23:29:50.852Z,97806.69
2022-09-25T23:31:55.986Z,97800.53
2022-09-25T23:34:01.592Z,97797.34
2022-09-25T23:36:08.348Z,97813.59
2022-09-25T23:38:13.157Z,97798.53
2022-09-25T23:40:18.412Z,97807.88
2022-09-25T23:42:23.792Z,97813.00
2022-09-25T23:44:28.549Z,97813.94
2022-09-25T23:46:38.055Z,97817.47
2022-09-25T23:48:42.841Z,97813.09
2022-09-25T23:50:49.795Z,97810.81
2022-09-25T23:52:54.595Z,97803.44
2022-09-25T23:54:59.455Z,97807.66
2022-09-25T23:57:04.275Z,97802.03
2022-09-25T23:59:09.077Z,97813.94
